JAL48 EFHK-RJTT
Flight info
| Callsign | JAL48 |
|---|---|
| Flight time | N/A |
| Altitude | 32000 |
| Route | TEVRU4N TEVRU Y75 USUPO DCT VATAX DCT 78N000E/M084F320 81N020W 82N040W 82N060W/N0483F340 82N080W 82N100W 81N120W DCT OMEKA DCT JUJXI DCT MARCC/N0480F360 R338 NATES R220 NIKLL/N0483F370 R220 NOGAL/N0491F380 R220 NODAN/N0492F390 R220 NANAC/N0484F380 Y810 AKRIT Y807 POLIX POLIXL |
| Aircraft | B77W/H-SDE1E2E3FGHIJ2J3J4J5M1RWXY/LB1D1 |
Departure
| Time | N/A |
|---|---|
| Airport | Helsinki Vantaa Airport (EFHK) |
Arrival
| Time | 2026-05-05 01:09 |
|---|---|
| Airport | Tokyo Haneda International Airport (RJTT) |
| Time | Latitude | Longitude | Altitude | Speed | Heading |
|---|---|---|---|---|---|
| 2026-05-04 22:32 | 46.06280 | 152.75753 | 34501 ft | 387 kts | 232° |
| 2026-05-04 22:32 | 46.04467 | 152.72881 | 34755 ft | 387 kts | 232° |
| 2026-05-04 22:32 | 46.02658 | 152.70015 | 35026 ft | 387 kts | 233° |
| 2026-05-04 22:32 | 46.00841 | 152.67143 | 35308 ft | 387 kts | 233° |
| 2026-05-04 22:33 | 45.99028 | 152.64277 | 35350 ft | 390 kts | 233° |
| 2026-05-04 22:33 | 45.95376 | 152.58516 | 35445 ft | 388 kts | 233° |
| 2026-05-04 22:34 | 45.91769 | 152.52840 | 35456 ft | 386 kts | 233° |
| 2026-05-04 22:34 | 45.88150 | 152.47155 | 35470 ft | 385 kts | 233° |
| 2026-05-04 22:35 | 45.84537 | 152.41490 | 35465 ft | 385 kts | 233° |
| 2026-05-04 22:35 | 45.80921 | 152.35832 | 35484 ft | 384 kts | 233° |
| 2026-05-04 22:36 | 45.77297 | 152.30175 | 35478 ft | 385 kts | 233° |
| 2026-05-04 22:36 | 45.73692 | 152.24558 | 35491 ft | 385 kts | 233° |
| 2026-05-04 22:37 | 45.70063 | 152.18915 | 35492 ft | 385 kts | 233° |
| 2026-05-04 22:37 | 45.66433 | 152.13283 | 35502 ft | 385 kts | 233° |
| 2026-05-04 22:38 | 45.62799 | 152.07657 | 35505 ft | 385 kts | 233° |
| 2026-05-04 22:38 | 45.59161 | 152.02037 | 35514 ft | 385 kts | 233° |
| 2026-05-04 22:39 | 45.55524 | 151.96428 | 35522 ft | 385 kts | 233° |
| 2026-05-04 22:39 | 45.51883 | 151.90826 | 35528 ft | 385 kts | 233° |
| 2026-05-04 22:40 | 45.48264 | 151.85268 | 35526 ft | 384 kts | 233° |
| 2026-05-04 22:40 | 45.44624 | 151.79689 | 35537 ft | 384 kts | 233° |
| 2026-05-04 22:41 | 45.40985 | 151.74123 | 35964 ft | 384 kts | 231° |
| 2026-05-04 22:41 | 45.39151 | 151.71310 | 35804 ft | 390 kts | 227° |
| 2026-05-04 22:41 | 45.37295 | 151.68478 | 35713 ft | 393 kts | 227° |
| 2026-05-04 22:42 | 45.33565 | 151.62806 | 35597 ft | 394 kts | 227° |
| 2026-05-04 22:42 | 45.29810 | 151.57101 | 35567 ft | 393 kts | 227° |
| 2026-05-04 22:43 | 45.26107 | 151.51486 | 35558 ft | 391 kts | 227° |
| 2026-05-04 22:43 | 45.22392 | 151.45861 | 35568 ft | 389 kts | 227° |
| 2026-05-04 22:44 | 45.18692 | 151.40272 | 35576 ft | 388 kts | 227° |
| 2026-05-04 22:44 | 45.14993 | 151.34695 | 35580 ft | 388 kts | 227° |
| 2026-05-04 22:45 | 45.11290 | 151.29125 | 35589 ft | 388 kts | 227° |
| 2026-05-04 22:45 | 45.05746 | 151.20804 | 35578 ft | 389 kts | 227° |
| 2026-05-04 22:46 | 45.02020 | 151.15225 | 35587 ft | 390 kts | 227° |
| 2026-05-04 22:46 | 44.98287 | 151.09648 | 35597 ft | 390 kts | 227° |
| 2026-05-04 22:47 | 44.94553 | 151.04082 | 35599 ft | 390 kts | 227° |
| 2026-05-04 22:47 | 44.90810 | 150.98512 | 35600 ft | 390 kts | 227° |
| 2026-05-04 22:48 | 44.87069 | 150.92957 | 35610 ft | 390 kts | 227° |
| 2026-05-04 22:48 | 44.83324 | 150.87408 | 35617 ft | 390 kts | 227° |
| 2026-05-04 22:49 | 44.79596 | 150.81894 | 35620 ft | 390 kts | 226° |
| 2026-05-04 22:49 | 44.75847 | 150.76361 | 35624 ft | 390 kts | 226° |
| 2026-05-04 22:50 | 44.72093 | 150.70832 | 35631 ft | 390 kts | 226° |
| 2026-05-04 22:50 | 44.68366 | 150.65352 | 35626 ft | 390 kts | 226° |
| 2026-05-04 22:51 | 44.64611 | 150.59843 | 35628 ft | 390 kts | 226° |
| 2026-05-04 22:51 | 44.61467 | 150.55239 | 35649 ft | 390 kts | 226° |
| 2026-05-04 22:52 | 44.57726 | 150.49770 | 35652 ft | 390 kts | 226° |
| 2026-05-04 22:52 | 44.53950 | 150.44263 | 35656 ft | 391 kts | 226° |
| 2026-05-04 22:53 | 44.50170 | 150.38759 | 35660 ft | 391 kts | 226° |
| 2026-05-04 22:53 | 44.46393 | 150.33271 | 35662 ft | 391 kts | 226° |
| 2026-05-04 22:54 | 44.42639 | 150.27828 | 35667 ft | 391 kts | 226° |
| 2026-05-04 22:54 | 44.38850 | 150.22344 | 35675 ft | 391 kts | 226° |
| 2026-05-04 22:55 | 44.35065 | 150.16876 | 35677 ft | 391 kts | 226° |
| 2026-05-04 22:55 | 44.31300 | 150.11449 | 35680 ft | 391 kts | 226° |
| 2026-05-04 22:56 | 44.27501 | 150.05983 | 35683 ft | 391 kts | 226° |
| 2026-05-04 22:56 | 44.23705 | 150.00533 | 35686 ft | 391 kts | 226° |
| 2026-05-04 22:57 | 44.19900 | 149.95079 | 35693 ft | 392 kts | 226° |
| 2026-05-04 22:57 | 44.16123 | 149.89679 | 35696 ft | 392 kts | 226° |
| 2026-05-04 22:58 | 44.12313 | 149.84240 | 35698 ft | 392 kts | 226° |
| 2026-05-04 22:58 | 44.08504 | 149.78813 | 35701 ft | 392 kts | 226° |
| 2026-05-04 22:59 | 44.04688 | 149.73388 | 35701 ft | 392 kts | 226° |
| 2026-05-04 22:59 | 44.00869 | 149.67968 | 35706 ft | 392 kts | 226° |
| 2026-05-04 23:00 | 43.97059 | 149.62572 | 35711 ft | 392 kts | 226° |
| 2026-05-04 23:00 | 43.93236 | 149.57168 | 35718 ft | 392 kts | 226° |
| 2026-05-04 23:01 | 43.89406 | 149.51765 | 35723 ft | 392 kts | 226° |
| 2026-05-04 23:01 | 43.85574 | 149.46369 | 35721 ft | 392 kts | 226° |
| 2026-05-04 23:02 | 43.81762 | 149.41013 | 35727 ft | 393 kts | 226° |
| 2026-05-04 23:02 | 43.77922 | 149.35626 | 35732 ft | 393 kts | 226° |
| 2026-05-04 23:03 | 43.74067 | 149.30230 | 35735 ft | 393 kts | 226° |
| 2026-05-04 23:03 | 43.70235 | 149.24876 | 35738 ft | 393 kts | 226° |
| 2026-05-04 23:04 | 43.66378 | 149.19498 | 35740 ft | 393 kts | 226° |
| 2026-05-04 23:04 | 43.62550 | 149.14171 | 35743 ft | 393 kts | 226° |
| 2026-05-04 23:05 | 43.58689 | 149.08807 | 35752 ft | 393 kts | 226° |
| 2026-05-04 23:05 | 43.54830 | 149.03457 | 35750 ft | 393 kts | 226° |
| 2026-05-04 23:06 | 43.50980 | 148.98130 | 35756 ft | 394 kts | 226° |
| 2026-05-04 23:06 | 43.47115 | 148.92792 | 35759 ft | 394 kts | 226° |
| 2026-05-04 23:07 | 43.43239 | 148.87449 | 35763 ft | 394 kts | 225° |
| 2026-05-04 23:07 | 43.39359 | 148.82111 | 35771 ft | 395 kts | 225° |
| 2026-05-04 23:08 | 43.35469 | 148.76770 | 35772 ft | 395 kts | 225° |
| 2026-05-04 23:08 | 43.31577 | 148.71437 | 35775 ft | 395 kts | 225° |
| 2026-05-04 23:09 | 43.27697 | 148.66129 | 35783 ft | 396 kts | 225° |
| 2026-05-04 23:09 | 43.23784 | 148.60786 | 35784 ft | 396 kts | 225° |
| 2026-05-04 23:10 | 43.19876 | 148.55461 | 35789 ft | 396 kts | 225° |
| 2026-05-04 23:10 | 43.15964 | 148.50141 | 35801 ft | 396 kts | 225° |
| 2026-05-04 23:11 | 43.12064 | 148.44847 | 35802 ft | 397 kts | 225° |
| 2026-05-04 23:11 | 43.08143 | 148.39535 | 35806 ft | 397 kts | 225° |
| 2026-05-04 23:12 | 43.04218 | 148.34228 | 35812 ft | 397 kts | 225° |
| 2026-05-04 23:12 | 43.00290 | 148.28925 | 35814 ft | 397 kts | 225° |
| 2026-05-04 23:13 | 42.96355 | 148.23624 | 35815 ft | 397 kts | 225° |
| 2026-05-04 23:13 | 42.92404 | 148.18312 | 35820 ft | 398 kts | 225° |
| 2026-05-04 23:14 | 42.88485 | 148.13053 | 35827 ft | 398 kts | 225° |
| 2026-05-04 23:14 | 42.84523 | 148.07745 | 35828 ft | 398 kts | 225° |
| 2026-05-04 23:15 | 42.80567 | 148.02456 | 35832 ft | 399 kts | 225° |
| 2026-05-04 23:15 | 42.76598 | 147.97159 | 35835 ft | 399 kts | 225° |
| 2026-05-04 23:16 | 42.72647 | 147.91897 | 35844 ft | 400 kts | 225° |
| 2026-05-04 23:16 | 42.68666 | 147.86605 | 35844 ft | 400 kts | 225° |
| 2026-05-04 23:17 | 42.64674 | 147.81307 | 35849 ft | 400 kts | 225° |
| 2026-05-04 23:17 | 42.60712 | 147.76059 | 35850 ft | 401 kts | 225° |
| 2026-05-04 23:18 | 42.56713 | 147.70773 | 35852 ft | 401 kts | 225° |
| 2026-05-04 23:18 | 42.52714 | 147.65497 | 35861 ft | 401 kts | 225° |
| 2026-05-04 23:19 | 42.48702 | 147.60212 | 35864 ft | 401 kts | 225° |
| 2026-05-04 23:19 | 42.44721 | 147.54977 | 35869 ft | 401 kts | 225° |
| 2026-05-04 23:20 | 42.40708 | 147.49710 | 35872 ft | 401 kts | 225° |
| 2026-05-04 23:20 | 42.36697 | 147.44455 | 35875 ft | 402 kts | 225° |
| 2026-05-04 23:21 | 42.32680 | 147.39193 | 35881 ft | 402 kts | 225° |
| 2026-05-04 23:21 | 42.28655 | 147.33928 | 35885 ft | 402 kts | 225° |
| 2026-05-04 23:22 | 42.24631 | 147.28673 | 35888 ft | 402 kts | 225° |
| 2026-05-04 23:22 | 42.20620 | 147.23445 | 35890 ft | 403 kts | 225° |
| 2026-05-04 23:23 | 42.16580 | 147.18189 | 35892 ft | 403 kts | 225° |
| 2026-05-04 23:23 | 42.12533 | 147.12934 | 35899 ft | 404 kts | 225° |
| 2026-05-04 23:24 | 42.08476 | 147.07675 | 35904 ft | 404 kts | 225° |
| 2026-05-04 23:24 | 42.04437 | 147.02450 | 35908 ft | 405 kts | 225° |
| 2026-05-04 23:25 | 42.00364 | 146.97190 | 35909 ft | 405 kts | 225° |
| 2026-05-04 23:25 | 41.96296 | 146.91945 | 35910 ft | 406 kts | 225° |
| 2026-05-04 23:26 | 41.92216 | 146.86695 | 35919 ft | 406 kts | 225° |
| 2026-05-04 23:26 | 41.88127 | 146.81442 | 35920 ft | 406 kts | 225° |
| 2026-05-04 23:27 | 41.84072 | 146.76239 | 35921 ft | 406 kts | 225° |
| 2026-05-04 23:27 | 41.79977 | 146.70991 | 35929 ft | 406 kts | 225° |
| 2026-05-04 23:28 | 41.75875 | 146.65743 | 35932 ft | 407 kts | 225° |
| 2026-05-04 23:28 | 41.71808 | 146.60551 | 35934 ft | 407 kts | 225° |
| 2026-05-04 23:29 | 41.67696 | 146.55310 | 35937 ft | 407 kts | 225° |
| 2026-05-04 23:29 | 41.63591 | 146.50087 | 35942 ft | 407 kts | 225° |
| 2026-05-04 23:30 | 41.59476 | 146.44861 | 35944 ft | 408 kts | 225° |
| 2026-05-04 23:30 | 41.55378 | 146.39667 | 35948 ft | 408 kts | 225° |
| 2026-05-04 23:31 | 41.51254 | 146.34450 | 35950 ft | 409 kts | 225° |
| 2026-05-04 23:31 | 41.47116 | 146.29225 | 35953 ft | 409 kts | 225° |
| 2026-05-04 23:32 | 41.42999 | 146.24035 | 35957 ft | 409 kts | 225° |
| 2026-05-04 23:32 | 41.38844 | 146.18807 | 35961 ft | 409 kts | 225° |
| 2026-05-04 23:33 | 41.34708 | 146.13614 | 35972 ft | 410 kts | 225° |
| 2026-05-04 23:33 | 41.30551 | 146.08402 | 35968 ft | 410 kts | 225° |
| 2026-05-04 23:34 | 41.26398 | 146.03206 | 35976 ft | 410 kts | 225° |
| 2026-05-04 23:34 | 41.22238 | 145.98009 | 35972 ft | 410 kts | 225° |
| 2026-05-04 23:35 | 41.18104 | 145.92856 | 35974 ft | 410 kts | 225° |
| 2026-05-04 23:35 | 41.13938 | 145.87672 | 35979 ft | 410 kts | 225° |
| 2026-05-04 23:36 | 41.09804 | 145.82536 | 35983 ft | 410 kts | 225° |
| 2026-05-04 23:36 | 41.05624 | 145.77353 | 35986 ft | 410 kts | 225° |
| 2026-05-04 23:37 | 41.01444 | 145.72180 | 35993 ft | 411 kts | 225° |
| 2026-05-04 23:37 | 40.97286 | 145.67044 | 35995 ft | 411 kts | 225° |
| 2026-05-04 23:38 | 40.93098 | 145.61879 | 35999 ft | 411 kts | 225° |
| 2026-05-04 23:38 | 40.88906 | 145.56718 | 35995 ft | 412 kts | 225° |
| 2026-05-04 23:39 | 40.84709 | 145.51562 | 36007 ft | 412 kts | 225° |
| 2026-05-04 23:39 | 40.81215 | 145.47276 | 36006 ft | 412 kts | 225° |
| 2026-05-04 23:40 | 40.77010 | 145.42126 | 36013 ft | 412 kts | 225° |
| 2026-05-04 23:40 | 40.72129 | 145.36161 | 36014 ft | 412 kts | 225° |
| 2026-05-04 23:41 | 40.68606 | 145.31862 | 36019 ft | 412 kts | 226° |
| 2026-05-04 23:41 | 40.64420 | 145.26763 | 36021 ft | 412 kts | 226° |
| 2026-05-04 23:42 | 40.60207 | 145.21641 | 36026 ft | 412 kts | 226° |
| 2026-05-04 23:42 | 40.55990 | 145.16522 | 36026 ft | 412 kts | 226° |
| 2026-05-04 23:43 | 40.51774 | 145.11413 | 36029 ft | 412 kts | 226° |
| 2026-05-04 23:43 | 40.47590 | 145.06351 | 36033 ft | 412 kts | 226° |
| 2026-05-04 23:44 | 40.43368 | 145.01252 | 36037 ft | 412 kts | 226° |
| 2026-05-04 23:44 | 40.39139 | 144.96160 | 36040 ft | 412 kts | 226° |
| 2026-05-04 23:45 | 40.34928 | 144.91104 | 36044 ft | 412 kts | 226° |
| 2026-05-04 23:45 | 40.30693 | 144.86026 | 36055 ft | 412 kts | 226° |
| 2026-05-04 23:46 | 40.26462 | 144.80959 | 36053 ft | 412 kts | 226° |
| 2026-05-04 23:46 | 40.22234 | 144.75903 | 36047 ft | 412 kts | 226° |
| 2026-05-04 23:47 | 40.17992 | 144.70840 | 36056 ft | 412 kts | 226° |
| 2026-05-04 23:47 | 40.13747 | 144.65783 | 36052 ft | 412 kts | 226° |
| 2026-05-04 23:48 | 40.09529 | 144.60767 | 36054 ft | 412 kts | 226° |
| 2026-05-04 23:48 | 40.05285 | 144.55727 | 36059 ft | 411 kts | 226° |
| 2026-05-04 23:49 | 40.01071 | 144.50734 | 36062 ft | 411 kts | 226° |
| 2026-05-04 23:49 | 39.96829 | 144.45715 | 36063 ft | 411 kts | 226° |
| 2026-05-04 23:50 | 39.92584 | 144.40701 | 36066 ft | 411 kts | 226° |
| 2026-05-04 23:50 | 39.88343 | 144.35701 | 36067 ft | 411 kts | 226° |
| 2026-05-04 23:51 | 39.84111 | 144.30720 | 36070 ft | 411 kts | 226° |
| 2026-05-04 23:51 | 39.79872 | 144.25741 | 36071 ft | 411 kts | 226° |
| 2026-05-04 23:52 | 39.75620 | 144.20754 | 36074 ft | 411 kts | 226° |
| 2026-05-04 23:52 | 39.71365 | 144.15771 | 36077 ft | 411 kts | 226° |
| 2026-05-04 23:53 | 39.67109 | 144.10797 | 36078 ft | 411 kts | 226° |
| 2026-05-04 23:53 | 39.62870 | 144.05852 | 36078 ft | 411 kts | 226° |
| 2026-05-04 23:54 | 39.58619 | 144.00900 | 36085 ft | 411 kts | 226° |
| 2026-05-04 23:54 | 39.54326 | 143.95907 | 36458 ft | 413 kts | 226° |
| 2026-05-04 23:55 | 39.52219 | 143.93461 | 36797 ft | 412 kts | 226° |
| 2026-05-04 23:55 | 39.50087 | 143.90988 | 37141 ft | 410 kts | 226° |
| 2026-05-04 23:55 | 39.45849 | 143.86078 | 37739 ft | 409 kts | 226° |
| 2026-05-04 23:56 | 39.43715 | 143.83608 | 38003 ft | 410 kts | 226° |
| 2026-05-04 23:56 | 39.39437 | 143.78661 | 38077 ft | 412 kts | 226° |
| 2026-05-04 23:57 | 39.35166 | 143.73735 | 38095 ft | 410 kts | 226° |
| 2026-05-04 23:57 | 39.30919 | 143.68845 | 38104 ft | 408 kts | 226° |
| 2026-05-04 23:58 | 39.26701 | 143.63993 | 38108 ft | 407 kts | 226° |
| 2026-05-04 23:58 | 39.22468 | 143.59133 | 38110 ft | 407 kts | 226° |
| 2026-05-04 23:59 | 39.18236 | 143.54282 | 38116 ft | 407 kts | 226° |
| 2026-05-04 23:59 | 39.14022 | 143.49460 | 38119 ft | 408 kts | 226° |
| 2026-05-05 00:00 | 39.09767 | 143.44599 | 38118 ft | 409 kts | 226° |
| 2026-05-05 00:00 | 39.05696 | 143.39956 | 38126 ft | 409 kts | 226° |
| 2026-05-05 00:01 | 39.01430 | 143.35098 | 38135 ft | 409 kts | 226° |
| 2026-05-05 00:01 | 38.97181 | 143.30266 | 38128 ft | 410 kts | 226° |
| 2026-05-05 00:02 | 38.92697 | 143.25685 | 38132 ft | 417 kts | 216° |
| 2026-05-05 00:02 | 38.87407 | 143.22469 | 38124 ft | 423 kts | 208° |
| 2026-05-05 00:03 | 38.81638 | 143.20637 | 38131 ft | 430 kts | 199° |
| 2026-05-05 00:03 | 38.75761 | 143.19399 | 38128 ft | 429 kts | 199° |
| 2026-05-05 00:04 | 38.69867 | 143.18160 | 38132 ft | 428 kts | 199° |
| 2026-05-05 00:04 | 38.63998 | 143.16883 | 38128 ft | 427 kts | 199° |
| 2026-05-05 00:05 | 38.58147 | 143.15587 | 38138 ft | 426 kts | 199° |
| 2026-05-05 00:05 | 38.52321 | 143.14294 | 38138 ft | 426 kts | 199° |
| 2026-05-05 00:06 | 38.46468 | 143.13001 | 38138 ft | 426 kts | 199° |
| 2026-05-05 00:06 | 38.40618 | 143.11716 | 38147 ft | 426 kts | 199° |
| 2026-05-05 00:07 | 38.34806 | 143.10427 | 38144 ft | 426 kts | 199° |
| 2026-05-05 00:07 | 38.28947 | 143.09134 | 38146 ft | 426 kts | 200° |
| 2026-05-05 00:08 | 38.23114 | 143.07852 | 38148 ft | 425 kts | 200° |
| 2026-05-05 00:08 | 38.17277 | 143.06572 | 38145 ft | 425 kts | 200° |
| 2026-05-05 00:09 | 38.11452 | 143.05297 | 38149 ft | 424 kts | 200° |
| 2026-05-05 00:09 | 38.05660 | 143.04030 | 38147 ft | 424 kts | 200° |
| 2026-05-05 00:10 | 37.99836 | 143.02758 | 38149 ft | 423 kts | 200° |
| 2026-05-05 00:10 | 37.94024 | 143.01491 | 38155 ft | 423 kts | 200° |
| 2026-05-05 00:11 | 37.88269 | 143.00239 | 38157 ft | 422 kts | 200° |
| 2026-05-05 00:11 | 37.82477 | 142.98980 | 38160 ft | 422 kts | 200° |
| 2026-05-05 00:12 | 37.76687 | 142.97723 | 38166 ft | 422 kts | 200° |
| 2026-05-05 00:12 | 37.70880 | 142.96465 | 38164 ft | 422 kts | 200° |
| 2026-05-05 00:13 | 37.65121 | 142.95220 | 38161 ft | 422 kts | 200° |
| 2026-05-05 00:13 | 37.59340 | 142.93972 | 38163 ft | 421 kts | 200° |
| 2026-05-05 00:14 | 37.53582 | 142.92730 | 38162 ft | 421 kts | 200° |
| 2026-05-05 00:14 | 37.47793 | 142.91484 | 38173 ft | 421 kts | 200° |
| 2026-05-05 00:15 | 37.42001 | 142.90239 | 38178 ft | 421 kts | 201° |
| 2026-05-05 00:15 | 37.36228 | 142.89000 | 38180 ft | 421 kts | 201° |
| 2026-05-05 00:16 | 37.30446 | 142.87761 | 38178 ft | 421 kts | 201° |
| 2026-05-05 00:16 | 37.24703 | 142.86529 | 38187 ft | 421 kts | 201° |
| 2026-05-05 00:17 | 37.18929 | 142.85291 | 38178 ft | 420 kts | 201° |
| 2026-05-05 00:17 | 37.13315 | 142.83679 | 38179 ft | 408 kts | 208° |
| 2026-05-05 00:18 | 37.08070 | 142.81159 | 38183 ft | 401 kts | 213° |
| 2026-05-05 00:18 | 37.03187 | 142.77915 | 38187 ft | 396 kts | 217° |
| 2026-05-05 00:19 | 36.98394 | 142.74505 | 38189 ft | 397 kts | 218° |
| 2026-05-05 00:19 | 36.93609 | 142.71111 | 38190 ft | 398 kts | 217° |
| 2026-05-05 00:20 | 36.88770 | 142.67704 | 38192 ft | 399 kts | 217° |
| 2026-05-05 00:20 | 36.83921 | 142.64303 | 38193 ft | 400 kts | 217° |
| 2026-05-05 00:21 | 36.79056 | 142.60898 | 38196 ft | 400 kts | 217° |
| 2026-05-05 00:21 | 36.74230 | 142.57524 | 38192 ft | 399 kts | 217° |
| 2026-05-05 00:22 | 36.69381 | 142.54140 | 38188 ft | 399 kts | 217° |
| 2026-05-05 00:22 | 36.64543 | 142.50767 | 38198 ft | 398 kts | 217° |
| 2026-05-05 00:23 | 36.59916 | 142.47546 | 38196 ft | 397 kts | 217° |
| 2026-05-05 00:23 | 36.55116 | 142.44209 | 38194 ft | 396 kts | 217° |
| 2026-05-05 00:24 | 36.50301 | 142.40867 | 38192 ft | 396 kts | 217° |
| 2026-05-05 00:24 | 36.45494 | 142.37533 | 38194 ft | 395 kts | 217° |
| 2026-05-05 00:25 | 36.40690 | 142.34208 | 38196 ft | 395 kts | 217° |
| 2026-05-05 00:25 | 36.35885 | 142.30885 | 38199 ft | 395 kts | 217° |
| 2026-05-05 00:26 | 36.31107 | 142.27586 | 38201 ft | 395 kts | 217° |
| 2026-05-05 00:26 | 36.26312 | 142.24276 | 38199 ft | 394 kts | 218° |
| 2026-05-05 00:27 | 36.21520 | 142.20960 | 38201 ft | 394 kts | 218° |
| 2026-05-05 00:27 | 36.17540 | 142.18207 | 38202 ft | 394 kts | 218° |
| 2026-05-05 00:28 | 36.12744 | 142.14898 | 38201 ft | 394 kts | 217° |
| 2026-05-05 00:28 | 36.08515 | 142.10868 | 38213 ft | 379 kts | 231° |
| 2026-05-05 00:29 | 36.05153 | 142.05855 | 38215 ft | 380 kts | 238° |
| 2026-05-05 00:29 | 36.02833 | 142.00000 | 38208 ft | 383 kts | 246° |
| 2026-05-05 00:30 | 36.00713 | 141.93920 | 38211 ft | 385 kts | 246° |
| 2026-05-05 00:30 | 35.98544 | 141.87854 | 38208 ft | 386 kts | 246° |
| 2026-05-05 00:31 | 35.96434 | 141.81831 | 38207 ft | 384 kts | 250° |
| 2026-05-05 00:31 | 35.95196 | 141.75701 | 38215 ft | 384 kts | 256° |
| 2026-05-05 00:32 | 35.94404 | 141.69214 | 38202 ft | 381 kts | 263° |
| 2026-05-05 00:32 | 35.94411 | 141.62657 | 38207 ft | 382 kts | 265° |
| 2026-05-05 00:33 | 35.94479 | 141.56143 | 38219 ft | 381 kts | 265° |
| 2026-05-05 00:33 | 35.94521 | 141.49595 | 38222 ft | 381 kts | 265° |
| 2026-05-05 00:34 | 35.94548 | 141.43042 | 38220 ft | 382 kts | 265° |
| 2026-05-05 00:34 | 35.94567 | 141.36461 | 37606 ft | 388 kts | 264° |
| 2026-05-05 00:34 | 35.94576 | 141.33141 | 37046 ft | 383 kts | 264° |
| 2026-05-05 00:35 | 35.94586 | 141.29896 | 36250 ft | 382 kts | 264° |
| 2026-05-05 00:35 | 35.94593 | 141.26613 | 35346 ft | 382 kts | 263° |
| 2026-05-05 00:35 | 35.94600 | 141.23351 | 34680 ft | 377 kts | 263° |
| 2026-05-05 00:35 | 35.94609 | 141.20128 | 33989 ft | 373 kts | 263° |
| 2026-05-05 00:36 | 35.94622 | 141.16935 | 32970 ft | 373 kts | 263° |
| 2026-05-05 00:36 | 35.94635 | 141.13719 | 31977 ft | 375 kts | 263° |
| 2026-05-05 00:36 | 35.94650 | 141.10491 | 31228 ft | 373 kts | 262° |
| 2026-05-05 00:36 | 35.94665 | 141.07318 | 30606 ft | 368 kts | 262° |
| 2026-05-05 00:37 | 35.94678 | 141.04176 | 29941 ft | 364 kts | 262° |
| 2026-05-05 00:37 | 35.94748 | 141.01069 | 29193 ft | 364 kts | 268° |
| 2026-05-05 00:37 | 35.95234 | 140.97964 | 28458 ft | 371 kts | 275° |
| 2026-05-05 00:37 | 35.95961 | 140.94914 | 27803 ft | 370 kts | 278° |
| 2026-05-05 00:38 | 35.96817 | 140.91950 | 27191 ft | 371 kts | 283° |
| 2026-05-05 00:38 | 35.98022 | 140.89108 | 26599 ft | 378 kts | 292° |
| 2026-05-05 00:38 | 35.99435 | 140.86388 | 26048 ft | 374 kts | 293° |
| 2026-05-05 00:38 | 36.00847 | 140.83706 | 25499 ft | 370 kts | 294° |
| 2026-05-05 00:39 | 36.02236 | 140.81047 | 24982 ft | 365 kts | 294° |
| 2026-05-05 00:39 | 36.03595 | 140.78415 | 24451 ft | 361 kts | 295° |
| 2026-05-05 00:39 | 36.04932 | 140.75806 | 23940 ft | 357 kts | 296° |
| 2026-05-05 00:39 | 36.06251 | 140.73223 | 23355 ft | 354 kts | 297° |
| 2026-05-05 00:40 | 36.07563 | 140.70650 | 22729 ft | 351 kts | 297° |
| 2026-05-05 00:40 | 36.08857 | 140.68105 | 22079 ft | 349 kts | 298° |
| 2026-05-05 00:40 | 36.10126 | 140.65597 | 21455 ft | 347 kts | 299° |
| 2026-05-05 00:40 | 36.11404 | 140.63063 | 20847 ft | 346 kts | 300° |
| 2026-05-05 00:41 | 36.12674 | 140.60543 | 20257 ft | 344 kts | 301° |
| 2026-05-05 00:41 | 36.13935 | 140.58041 | 19712 ft | 342 kts | 302° |
| 2026-05-05 00:41 | 36.15192 | 140.55547 | 19149 ft | 340 kts | 302° |
| 2026-05-05 00:41 | 36.16442 | 140.53064 | 18621 ft | 339 kts | 303° |
| 2026-05-05 00:42 | 36.17688 | 140.50590 | 18041 ft | 337 kts | 304° |
| 2026-05-05 00:42 | 36.18926 | 140.48130 | 17454 ft | 336 kts | 304° |
| 2026-05-05 00:42 | 36.20118 | 140.45709 | 16884 ft | 331 kts | 301° |
| 2026-05-05 00:42 | 36.20922 | 140.42992 | 16153 ft | 341 kts | 287° |
| 2026-05-05 00:43 | 36.21154 | 140.40043 | 15576 ft | 347 kts | 277° |
| 2026-05-05 00:43 | 36.21164 | 140.37064 | 15057 ft | 345 kts | 276° |
| 2026-05-05 00:43 | 36.21185 | 140.34095 | 14551 ft | 344 kts | 277° |
| 2026-05-05 00:43 | 36.21170 | 140.31151 | 13981 ft | 342 kts | 271° |
| 2026-05-05 00:44 | 36.20475 | 140.28261 | 13424 ft | 359 kts | 249° |
| 2026-05-05 00:44 | 36.18988 | 140.25738 | 13072 ft | 369 kts | 231° |
| 2026-05-05 00:44 | 36.16909 | 140.23814 | 12799 ft | 380 kts | 214° |
| 2026-05-05 00:44 | 36.14366 | 140.22779 | 12478 ft | 387 kts | 193° |
| 2026-05-05 00:45 | 36.11686 | 140.22320 | 12203 ft | 390 kts | 191° |
| 2026-05-05 00:45 | 36.08994 | 140.21871 | 11912 ft | 389 kts | 191° |
| 2026-05-05 00:45 | 36.06362 | 140.21387 | 11627 ft | 384 kts | 192° |
| 2026-05-05 00:45 | 36.03735 | 140.20877 | 11321 ft | 378 kts | 192° |
| 2026-05-05 00:46 | 36.01164 | 140.20419 | 11206 ft | 367 kts | 188° |
| 2026-05-05 00:46 | 35.98654 | 140.20283 | 11163 ft | 354 kts | 183° |
| 2026-05-05 00:46 | 35.96238 | 140.20298 | 11170 ft | 340 kts | 182° |
| 2026-05-05 00:46 | 35.93921 | 140.20331 | 11161 ft | 327 kts | 182° |
| 2026-05-05 00:47 | 35.91692 | 140.20341 | 11163 ft | 314 kts | 183° |
| 2026-05-05 00:47 | 35.89548 | 140.20329 | 11157 ft | 302 kts | 184° |
| 2026-05-05 00:47 | 35.87439 | 140.20301 | 11181 ft | 305 kts | 184° |
| 2026-05-05 00:47 | 35.85341 | 140.20267 | 11182 ft | 304 kts | 184° |
| 2026-05-05 00:48 | 35.83495 | 140.20237 | 11188 ft | 303 kts | 184° |
| 2026-05-05 00:48 | 35.81384 | 140.20201 | 11177 ft | 302 kts | 184° |
| 2026-05-05 00:48 | 35.79288 | 140.20165 | 11173 ft | 301 kts | 184° |
| 2026-05-05 00:48 | 35.77181 | 140.20153 | 11175 ft | 300 kts | 182° |
| 2026-05-05 00:49 | 35.75091 | 140.20246 | 11185 ft | 300 kts | 180° |
| 2026-05-05 00:49 | 35.73000 | 140.20366 | 11185 ft | 301 kts | 181° |
| 2026-05-05 00:49 | 35.70911 | 140.20481 | 11178 ft | 301 kts | 181° |
| 2026-05-05 00:49 | 35.68826 | 140.20586 | 11172 ft | 297 kts | 181° |
| 2026-05-05 00:50 | 35.66822 | 140.20684 | 11153 ft | 285 kts | 181° |
| 2026-05-05 00:50 | 35.64867 | 140.20775 | 11056 ft | 277 kts | 181° |
| 2026-05-05 00:50 | 35.62945 | 140.20866 | 10749 ft | 274 kts | 181° |
| 2026-05-05 00:50 | 35.61034 | 140.20909 | 10191 ft | 274 kts | 183° |
| 2026-05-05 00:51 | 35.59135 | 140.20916 | 9728 ft | 269 kts | 183° |
| 2026-05-05 00:51 | 35.57295 | 140.20927 | 9354 ft | 261 kts | 182° |
| 2026-05-05 00:51 | 35.55508 | 140.20941 | 8990 ft | 252 kts | 182° |
| 2026-05-05 00:51 | 35.53768 | 140.20953 | 8581 ft | 248 kts | 182° |
| 2026-05-05 00:52 | 35.52050 | 140.20964 | 8237 ft | 248 kts | 181° |
| 2026-05-05 00:52 | 35.50349 | 140.21346 | 8191 ft | 257 kts | 157° |
| 2026-05-05 00:52 | 35.48737 | 140.22300 | 8192 ft | 257 kts | 154° |
| 2026-05-05 00:52 | 35.47149 | 140.23267 | 8182 ft | 253 kts | 154° |
| 2026-05-05 00:53 | 35.45579 | 140.24208 | 8175 ft | 248 kts | 155° |
| 2026-05-05 00:53 | 35.44022 | 140.25121 | 8179 ft | 248 kts | 155° |
| 2026-05-05 00:53 | 35.42451 | 140.26035 | 8185 ft | 249 kts | 155° |
| 2026-05-05 00:53 | 35.40901 | 140.26933 | 8212 ft | 251 kts | 156° |
| 2026-05-05 00:54 | 35.39308 | 140.27844 | 8188 ft | 254 kts | 156° |
| 2026-05-05 00:54 | 35.37702 | 140.28760 | 8182 ft | 255 kts | 156° |
| 2026-05-05 00:54 | 35.36098 | 140.29661 | 8215 ft | 254 kts | 156° |
| 2026-05-05 00:54 | 35.34488 | 140.30578 | 8215 ft | 255 kts | 156° |
| 2026-05-05 00:55 | 35.32876 | 140.31497 | 8190 ft | 255 kts | 156° |
| 2026-05-05 00:55 | 35.31269 | 140.32411 | 8199 ft | 256 kts | 157° |
| 2026-05-05 00:55 | 35.29652 | 140.33321 | 8220 ft | 256 kts | 157° |
| 2026-05-05 00:55 | 35.28030 | 140.34218 | 8182 ft | 254 kts | 158° |
| 2026-05-05 00:56 | 35.26358 | 140.34761 | 7993 ft | 247 kts | 186° |
| 2026-05-05 00:56 | 35.24773 | 140.34169 | 7830 ft | 235 kts | 219° |
| 2026-05-05 00:56 | 35.23642 | 140.32793 | 7613 ft | 227 kts | 240° |
| 2026-05-05 00:56 | 35.22930 | 140.31092 | 7320 ft | 225 kts | 251° |
| 2026-05-05 00:57 | 35.22355 | 140.29310 | 7092 ft | 225 kts | 253° |
| 2026-05-05 00:57 | 35.21784 | 140.27529 | 7012 ft | 224 kts | 251° |
| 2026-05-05 00:57 | 35.21214 | 140.25774 | 6871 ft | 224 kts | 250° |
| 2026-05-05 00:57 | 35.20637 | 140.24012 | 6667 ft | 221 kts | 253° |
| 2026-05-05 00:58 | 35.20391 | 140.22188 | 6341 ft | 218 kts | 271° |
| 2026-05-05 00:58 | 35.20401 | 140.20330 | 6061 ft | 219 kts | 272° |
| 2026-05-05 00:58 | 35.20438 | 140.18469 | 5842 ft | 218 kts | 272° |
| 2026-05-05 00:58 | 35.20459 | 140.16611 | 5536 ft | 218 kts | 272° |
| 2026-05-05 00:59 | 35.20476 | 140.14758 | 5242 ft | 218 kts | 273° |
| 2026-05-05 00:59 | 35.20487 | 140.12925 | 5106 ft | 211 kts | 273° |
| 2026-05-05 00:59 | 35.20490 | 140.11134 | 5049 ft | 213 kts | 273° |
| 2026-05-05 00:59 | 35.20574 | 140.09313 | 5029 ft | 215 kts | 289° |
| 2026-05-05 01:00 | 35.21270 | 140.07720 | 5079 ft | 215 kts | 302° |
| 2026-05-05 01:00 | 35.22043 | 140.06103 | 5033 ft | 223 kts | 301° |
| 2026-05-05 01:00 | 35.22783 | 140.04516 | 5049 ft | 211 kts | 301° |
| 2026-05-05 01:00 | 35.23509 | 140.02974 | 5072 ft | 209 kts | 302° |
| 2026-05-05 01:01 | 35.24257 | 140.01403 | 5025 ft | 214 kts | 301° |
| 2026-05-05 01:01 | 35.24987 | 139.99850 | 5056 ft | 206 kts | 301° |
| 2026-05-05 01:01 | 35.25744 | 139.98394 | 4980 ft | 195 kts | 317° |
| 2026-05-05 01:01 | 35.26873 | 139.97518 | 5075 ft | 204 kts | 331° |
| 2026-05-05 01:02 | 35.28107 | 139.96649 | 5006 ft | 202 kts | 329° |
| 2026-05-05 01:02 | 35.29287 | 139.95809 | 5014 ft | 192 kts | 329° |
| 2026-05-05 01:02 | 35.30415 | 139.95044 | 5025 ft | 181 kts | 330° |
| 2026-05-05 01:02 | 35.31527 | 139.94271 | 5037 ft | 185 kts | 330° |
| 2026-05-05 01:03 | 35.32634 | 139.93489 | 5024 ft | 181 kts | 329° |
| 2026-05-05 01:03 | 35.33712 | 139.92727 | 5001 ft | 176 kts | 329° |
| 2026-05-05 01:03 | 35.34765 | 139.91979 | 5019 ft | 176 kts | 329° |
| 2026-05-05 01:03 | 35.35845 | 139.91208 | 4942 ft | 183 kts | 330° |
| 2026-05-05 01:04 | 35.36970 | 139.90414 | 4653 ft | 190 kts | 330° |
| 2026-05-05 01:04 | 35.39289 | 139.88773 | 3853 ft | 192 kts | 330° |
| 2026-05-05 01:04 | 35.40416 | 139.87973 | 3463 ft | 182 kts | 331° |
| 2026-05-05 01:05 | 35.41491 | 139.87210 | 3063 ft | 175 kts | 332° |
| 2026-05-05 01:05 | 35.42523 | 139.86475 | 2666 ft | 170 kts | 332° |
| 2026-05-05 01:05 | 35.43555 | 139.85743 | 2340 ft | 172 kts | 333° |
| 2026-05-05 01:05 | 35.44597 | 139.85006 | 2101 ft | 174 kts | 333° |
| 2026-05-05 01:06 | 35.45609 | 139.84285 | 1830 ft | 161 kts | 333° |
| 2026-05-05 01:06 | 35.46549 | 139.83619 | 1634 ft | 154 kts | 334° |
| 2026-05-05 01:06 | 35.47467 | 139.82967 | 1448 ft | 152 kts | 333° |
| 2026-05-05 01:06 | 35.48371 | 139.82323 | 1228 ft | 147 kts | 334° |
| 2026-05-05 01:07 | 35.49263 | 139.81691 | 1042 ft | 152 kts | 334° |
| 2026-05-05 01:07 | 35.50180 | 139.81040 | 834 ft | 150 kts | 333° |
| 2026-05-05 01:07 | 35.51044 | 139.80423 | 642 ft | 140 kts | 333° |
| 2026-05-05 01:07 | 35.51848 | 139.79850 | 465 ft | 130 kts | 333° |
| 2026-05-05 01:08 | 35.52628 | 139.79292 | 311 ft | 133 kts | 333° |
| 2026-05-05 01:08 | 35.53452 | 139.78711 | 152 ft | 138 kts | 326° |
| 2026-05-05 01:08 | 35.54271 | 139.78102 | 47 ft | 132 kts | 336° |
| 2026-05-05 01:08 | 35.54981 | 139.77628 | 26 ft | 96 kts | 333° |
| 2026-05-05 01:09 | 35.55398 | 139.77315 | 27 ft | 55 kts | 318° |
| 2026-05-05 01:09 | 35.55501 | 139.77069 | 29 ft | 18 kts | 233° |
| 2026-05-05 01:09 | 35.55391 | 139.77088 | 30 ft | 16 kts | 155° |
| 2026-05-05 01:09 | 35.55285 | 139.77054 | 27 ft | 16 kts | 192° |
| 2026-05-05 01:10 | 35.55205 | 139.77087 | 29 ft | 20 kts | 150° |
| 2026-05-05 01:10 | 35.55079 | 139.77186 | 31 ft | 22 kts | 146° |
| 2026-05-05 01:10 | 35.54953 | 139.77271 | 32 ft | 17 kts | 149° |
| 2026-05-05 01:10 | 35.54863 | 139.77311 | 28 ft | 9 kts | 185° |
| 2026-05-05 01:11 | 35.54814 | 139.77266 | 28 ft | 9 kts | 232° |
| 2026-05-05 01:11 | 35.54775 | 139.77189 | 29 ft | 13 kts | 239° |
| 2026-05-05 01:11 | 35.54720 | 139.77094 | 27 ft | 11 kts | 223° |
| 2026-05-05 01:11 | 35.54679 | 139.77037 | 27 ft | 7 kts | 237° |
| 2026-05-05 01:12 | 35.54658 | 139.76994 | 27 ft | 5 kts | 239° |
| 2026-05-05 01:12 | 35.54649 | 139.76975 | 28 ft | 1 kts | 240° |
| 2026-05-05 01:12 | 35.54647 | 139.76972 | 28 ft | 0 kts | 240° |
| 2026-05-05 01:12 | 35.54646 | 139.76969 | 28 ft | 0 kts | 240° |
| 2026-05-05 01:13 | 35.54644 | 139.76965 | 28 ft | 1 kts | 240° |